sensor_id;sensor_type;location;lat;lon;timestamp;temperature;humidity
23544;DHT22;11950;51.230;4.012;2022-10-22T00:00:36;16.70;99.90
23544;DHT22;11950;51.230;4.012;2022-10-22T00:03:03;16.70;99.90
23544;DHT22;11950;51.230;4.012;2022-10-22T00:05:29;16.60;99.90
23544;DHT22;11950;51.230;4.012;2022-10-22T00:07:55;16.70;99.90
23544;DHT22;11950;51.230;4.012;2022-10-22T00:10:21;16.70;99.90
23544;DHT22;11950;51.230;4.012;2022-10-22T00:12:48;16.70;99.90
23544;DHT22;11950;51.230;4.012;2022-10-22T00:15:14;16.60;99.90
23544;DHT22;11950;51.230;4.012;2022-10-22T00:17:40;16.60;99.90
23544;DHT22;11950;51.230;4.012;2022-10-22T00:20:07;16.70;99.90
23544;DHT22;11950;51.230;4.012;2022-10-22T00:22:33;16.70;99.90
23544;DHT22;11950;51.230;4.012;2022-10-22T00:25:00;16.60;99.90
23544;DHT22;11950;51.230;4.012;2022-10-22T00:27:26;16.60;99.90
23544;DHT22;11950;51.230;4.012;2022-10-22T00:29:52;16.60;99.90
23544;DHT22;11950;51.230;4.012;2022-10-22T00:32:18;16.60;99.90
23544;DHT22;11950;51.230;4.012;2022-10-22T00:34:45;16.60;99.90
23544;DHT22;11950;51.230;4.012;2022-10-22T00:37:11;16.60;99.90
23544;DHT22;11950;51.230;4.012;2022-10-22T00:39:37;16.60;99.90
23544;DHT22;11950;51.230;4.012;2022-10-22T00:42:03;16.60;99.90
23544;DHT22;11950;51.230;4.012;2022-10-22T00:47:40;16.60;99.90
23544;DHT22;11950;51.230;4.012;2022-10-22T00:50:15;16.60;99.90
23544;DHT22;11950;51.230;4.012;2022-10-22T00:52:43;16.50;99.90
23544;DHT22;11950;51.230;4.012;2022-10-22T00:55:10;16.40;99.90
23544;DHT22;11950;51.230;4.012;2022-10-22T00:57:37;16.60;99.90
23544;DHT22;11950;51.230;4.012;2022-10-22T01:00:04;16.60;99.90
23544;DHT22;11950;51.230;4.012;2022-10-22T01:02:30;16.60;99.90
23544;DHT22;11950;51.230;4.012;2022-10-22T01:04:57;16.60;99.90
23544;DHT22;11950;51.230;4.012;2022-10-22T01:07:23;16.60;99.90
23544;DHT22;11950;51.230;4.012;2022-10-22T01:17:56;16.60;99.90
23544;DHT22;11950;51.230;4.012;2022-10-22T01:22:57;16.50;99.90
23544;DHT22;11950;51.230;4.012;2022-10-22T01:25:53;16.60;99.90
23544;DHT22;11950;51.230;4.012;2022-10-22T01:31:21;16.60;99.90
23544;DHT22;11950;51.230;4.012;2022-10-22T01:33:49;16.60;99.90
23544;DHT22;11950;51.230;4.012;2022-10-22T01:36:18;16.60;99.90
23544;DHT22;11950;51.230;4.012;2022-10-22T01:38:46;16.60;99.90
23544;DHT22;11950;51.230;4.012;2022-10-22T01:41:13;16.60;99.90
23544;DHT22;11950;51.230;4.012;2022-10-22T01:43:39;16.60;99.90
23544;DHT22;11950;51.230;4.012;2022-10-22T01:46:06;16.60;99.90
23544;DHT22;11950;51.230;4.012;2022-10-22T01:49:02;16.60;99.90
23544;DHT22;11950;51.230;4.012;2022-10-22T01:54:44;16.60;99.90
23544;DHT22;11950;51.230;4.012;2022-10-22T02:02:57;16.50;99.90
23544;DHT22;11950;51.230;4.012;2022-10-22T02:05:42;16.40;99.90
23544;DHT22;11950;51.230;4.012;2022-10-22T02:08:14;16.50;99.90
23544;DHT22;11950;51.230;4.012;2022-10-22T02:10:44;16.40;99.90
23544;DHT22;11950;51.230;4.012;2022-10-22T02:13:16;16.40;99.90
23544;DHT22;11950;51.230;4.012;2022-10-22T02:15:45;16.40;99.90
23544;DHT22;11950;51.230;4.012;2022-10-22T02:18:12;16.40;99.90
23544;DHT22;11950;51.230;4.012;2022-10-22T02:20:40;16.40;99.90
23544;DHT22;11950;51.230;4.012;2022-10-22T02:23:08;16.40;99.90
23544;DHT22;11950;51.230;4.012;2022-10-22T02:25:38;16.30;99.90
23544;DHT22;11950;51.230;4.012;2022-10-22T02:30:41;16.30;99.90
23544;DHT22;11950;51.230;4.012;2022-10-22T02:33:14;16.30;99.90
23544;DHT22;11950;51.230;4.012;2022-10-22T02:35:43;16.30;99.90
23544;DHT22;11950;51.230;4.012;2022-10-22T02:38:10;16.30;99.90
23544;DHT22;11950;51.230;4.012;2022-10-22T02:40:38;16.30;99.90
23544;DHT22;11950;51.230;4.012;2022-10-22T02:43:05;16.20;99.90
23544;DHT22;11950;51.230;4.012;2022-10-22T02:45:31;16.20;99.90
23544;DHT22;11950;51.230;4.012;2022-10-22T02:48:00;16.20;99.90
23544;DHT22;11950;51.230;4.012;2022-10-22T02:50:26;16.20;99.90
23544;DHT22;11950;51.230;4.012;2022-10-22T02:52:53;16.10;99.90
23544;DHT22;11950;51.230;4.012;2022-10-22T02:55:19;16.10;99.90
23544;DHT22;11950;51.230;4.012;2022-10-22T02:57:45;16.20;99.90
23544;DHT22;11950;51.230;4.012;2022-10-22T03:00:12;16.10;99.90
23544;DHT22;11950;51.230;4.012;2022-10-22T03:02:38;16.10;99.90
23544;DHT22;11950;51.230;4.012;2022-10-22T03:05:05;16.10;99.90
23544;DHT22;11950;51.230;4.012;2022-10-22T03:07:32;16.00;99.90
23544;DHT22;11950;51.230;4.012;2022-10-22T03:09:58;16.10;99.90
23544;DHT22;11950;51.230;4.012;2022-10-22T03:12:24;16.00;99.90
23544;DHT22;11950;51.230;4.012;2022-10-22T03:14:50;16.00;99.90
23544;DHT22;11950;51.230;4.012;2022-10-22T03:17:17;16.10;99.90
23544;DHT22;11950;51.230;4.012;2022-10-22T03:19:43;16.00;99.90
23544;DHT22;11950;51.230;4.012;2022-10-22T03:22:14;16.00;99.90
23544;DHT22;11950;51.230;4.012;2022-10-22T03:24:44;16.00;99.90
23544;DHT22;11950;51.230;4.012;2022-10-22T03:27:12;16.00;99.90
23544;DHT22;11950;51.230;4.012;2022-10-22T03:29:40;16.00;99.90
23544;DHT22;11950;51.230;4.012;2022-10-22T03:32:06;15.90;99.90
23544;DHT22;11950;51.230;4.012;2022-10-22T03:34:33;15.90;99.90
23544;DHT22;11950;51.230;4.012;2022-10-22T03:37:00;16.00;99.90
23544;DHT22;11950;51.230;4.012;2022-10-22T03:39:28;16.00;99.90
23544;DHT22;11950;51.230;4.012;2022-10-22T03:41:56;16.00;99.90
23544;DHT22;11950;51.230;4.012;2022-10-22T03:44:23;16.10;99.90
23544;DHT22;11950;51.230;4.012;2022-10-22T03:46:50;16.00;99.90
23544;DHT22;11950;51.230;4.012;2022-10-22T03:49:16;16.10;99.90
23544;DHT22;11950;51.230;4.012;2022-10-22T03:51:43;16.10;99.90
23544;DHT22;11950;51.230;4.012;2022-10-22T03:54:09;16.10;99.90
23544;DHT22;11950;51.230;4.012;2022-10-22T03:56:35;16.10;99.90
23544;DHT22;11950;51.230;4.012;2022-10-22T03:59:01;16.10;99.90
23544;DHT22;11950;51.230;4.012;2022-10-22T04:01:29;16.10;99.90
23544;DHT22;11950;51.230;4.012;2022-10-22T04:03:56;16.10;99.90
23544;DHT22;11950;51.230;4.012;2022-10-22T04:06:23;16.10;99.90
23544;DHT22;11950;51.230;4.012;2022-10-22T04:08:49;16.20;99.90
23544;DHT22;11950;51.230;4.012;2022-10-22T04:11:16;16.20;99.90
23544;DHT22;11950;51.230;4.012;2022-10-22T04:13:43;16.20;99.90
23544;DHT22;11950;51.230;4.012;2022-10-22T04:16:11;16.20;99.90
23544;DHT22;11950;51.230;4.012;2022-10-22T04:18:38;16.20;99.90
23544;DHT22;11950;51.230;4.012;2022-10-22T04:21:06;16.20;99.90
23544;DHT22;11950;51.230;4.012;2022-10-22T04:23:33;16.20;99.90
23544;DHT22;11950;51.230;4.012;2022-10-22T04:26:03;16.20;99.90
23544;DHT22;11950;51.230;4.012;2022-10-22T04:28:30;16.20;99.90
23544;DHT22;11950;51.230;4.012;2022-10-22T04:30:56;16.20;99.90
23544;DHT22;11950;51.230;4.012;2022-10-22T04:33:22;16.20;99.90
23544;DHT22;11950;51.230;4.012;2022-10-22T04:35:49;16.20;99.90
23544;DHT22;11950;51.230;4.012;2022-10-22T04:38:15;16.20;99.90
23544;DHT22;11950;51.230;4.012;2022-10-22T04:40:41;16.20;99.90
23544;DHT22;11950;51.230;4.012;2022-10-22T04:43:07;16.20;99.90
23544;DHT22;11950;51.230;4.012;2022-10-22T04:45:35;16.20;99.90
23544;DHT22;11950;51.230;4.012;2022-10-22T04:48:01;16.20;99.90
23544;DHT22;11950;51.230;4.012;2022-10-22T04:50:27;16.20;99.90
23544;DHT22;11950;51.230;4.012;2022-10-22T04:52:54;16.20;99.90
23544;DHT22;11950;51.230;4.012;2022-10-22T04:55:20;16.20;99.90
23544;DHT22;11950;51.230;4.012;2022-10-22T04:57:46;16.20;99.90
23544;DHT22;11950;51.230;4.012;2022-10-22T05:00:12;14.70;99.90
23544;DHT22;11950;51.230;4.012;2022-10-22T05:02:39;16.20;99.90
23544;DHT22;11950;51.230;4.012;2022-10-22T05:05:05;16.10;99.90
23544;DHT22;11950;51.230;4.012;2022-10-22T05:07:31;16.10;99.90
23544;DHT22;11950;51.230;4.012;2022-10-22T05:09:58;16.10;99.90
23544;DHT22;11950;51.230;4.012;2022-10-22T05:12:24;16.10;99.90
23544;DHT22;11950;51.230;4.012;2022-10-22T05:14:51;16.10;99.90
23544;DHT22;11950;51.230;4.012;2022-10-22T05:17:17;16.10;99.90
23544;DHT22;11950;51.230;4.012;2022-10-22T05:19:43;16.10;99.90
23544;DHT22;11950;51.230;4.012;2022-10-22T05:22:09;16.20;99.90
23544;DHT22;11950;51.230;4.012;2022-10-22T05:24:35;16.20;99.90
23544;DHT22;11950;51.230;4.012;2022-10-22T05:27:02;16.20;99.90
23544;DHT22;11950;51.230;4.012;2022-10-22T05:29:29;16.20;99.90
23544;DHT22;11950;51.230;4.012;2022-10-22T05:31:55;16.20;99.90
23544;DHT22;11950;51.230;4.012;2022-10-22T05:34:22;16.20;99.90
23544;DHT22;11950;51.230;4.012;2022-10-22T05:36:48;16.20;99.90
23544;DHT22;11950;51.230;4.012;2022-10-22T05:39:14;16.20;99.90
23544;DHT22;11950;51.230;4.012;2022-10-22T05:41:40;16.20;99.90
23544;DHT22;11950;51.230;4.012;2022-10-22T05:44:09;16.20;99.90
23544;DHT22;11950;51.230;4.012;2022-10-22T05:46:36;16.20;99.90
23544;DHT22;11950;51.230;4.012;2022-10-22T05:49:04;16.20;99.90
23544;DHT22;11950;51.230;4.012;2022-10-22T05:51:33;16.10;99.90
23544;DHT22;11950;51.230;4.012;2022-10-22T05:54:01;16.10;99.90
23544;DHT22;11950;51.230;4.012;2022-10-22T05:56:30;16.20;99.90
23544;DHT22;11950;51.230;4.012;2022-10-22T05:58:59;16.10;99.90
23544;DHT22;11950;51.230;4.012;2022-10-22T06:01:28;16.10;99.90
23544;DHT22;11950;51.230;4.012;2022-10-22T06:03:56;16.20;99.90
23544;DHT22;11950;51.230;4.012;2022-10-22T06:08:55;16.10;99.90
23544;DHT22;11950;51.230;4.012;2022-10-22T06:11:22;16.20;99.90
23544;DHT22;11950;51.230;4.012;2022-10-22T06:13:49;16.20;99.90
23544;DHT22;11950;51.230;4.012;2022-10-22T06:16:16;16.20;99.90
23544;DHT22;11950;51.230;4.012;2022-10-22T06:18:42;16.20;99.90
23544;DHT22;11950;51.230;4.012;2022-10-22T06:21:11;16.20;99.90
23544;DHT22;11950;51.230;4.012;2022-10-22T06:23:38;16.20;99.90
23544;DHT22;11950;51.230;4.012;2022-10-22T06:26:05;16.20;99.90
23544;DHT22;11950;51.230;4.012;2022-10-22T06:28:32;16.10;99.90
23544;DHT22;11950;51.230;4.012;2022-10-22T06:31:00;16.10;99.90
23544;DHT22;11950;51.230;4.012;2022-10-22T06:33:27;16.10;99.90
23544;DHT22;11950;51.230;4.012;2022-10-22T06:35:54;16.10;99.90
23544;DHT22;11950;51.230;4.012;2022-10-22T06:38:20;16.10;99.90
23544;DHT22;11950;51.230;4.012;2022-10-22T06:40:46;16.10;99.90
23544;DHT22;11950;51.230;4.012;2022-10-22T06:43:13;16.20;99.90
23544;DHT22;11950;51.230;4.012;2022-10-22T06:45:40;16.20;99.90
23544;DHT22;11950;51.230;4.012;2022-10-22T06:48:06;16.20;99.90
23544;DHT22;11950;51.230;4.012;2022-10-22T06:50:35;16.30;99.90
23544;DHT22;11950;51.230;4.012;2022-10-22T06:53:01;16.30;99.90
23544;DHT22;11950;51.230;4.012;2022-10-22T06:55:28;16.30;99.90
23544;DHT22;11950;51.230;4.012;2022-10-22T06:57:54;16.30;99.90
23544;DHT22;11950;51.230;4.012;2022-10-22T07:00:21;16.30;99.90
23544;DHT22;11950;51.230;4.012;2022-10-22T07:02:51;16.40;99.90
23544;DHT22;11950;51.230;4.012;2022-10-22T07:05:20;16.40;99.90
23544;DHT22;11950;51.230;4.012;2022-10-22T07:07:46;16.50;99.90
23544;DHT22;11950;51.230;4.012;2022-10-22T07:10:13;16.40;99.90
23544;DHT22;11950;51.230;4.012;2022-10-22T07:12:39;16.40;99.90
23544;DHT22;11950;51.230;4.012;2022-10-22T07:15:05;16.40;99.90
23544;DHT22;11950;51.230;4.012;2022-10-22T07:17:32;16.50;99.90
23544;DHT22;11950;51.230;4.012;2022-10-22T07:19:58;16.50;99.90
23544;DHT22;11950;51.230;4.012;2022-10-22T07:22:24;16.60;99.90
23544;DHT22;11950;51.230;4.012;2022-10-22T07:24:50;16.60;99.90
23544;DHT22;11950;51.230;4.012;2022-10-22T07:27:16;16.60;99.90
23544;DHT22;11950;51.230;4.012;2022-10-22T07:29:42;16.70;99.90
23544;DHT22;11950;51.230;4.012;2022-10-22T07:32:09;16.70;99.90
23544;DHT22;11950;51.230;4.012;2022-10-22T07:34:35;16.70;99.90
23544;DHT22;11950;51.230;4.012;2022-10-22T07:37:01;16.80;99.90
23544;DHT22;11950;51.230;4.012;2022-10-22T07:39:27;16.80;99.90
23544;DHT22;11950;51.230;4.012;2022-10-22T07:41:54;16.90;99.90
23544;DHT22;11950;51.230;4.012;2022-10-22T07:44:20;16.90;99.90
23544;DHT22;11950;51.230;4.012;2022-10-22T07:46:46;17.00;99.90
23544;DHT22;11950;51.230;4.012;2022-10-22T07:49:12;16.90;99.90
23544;DHT22;11950;51.230;4.012;2022-10-22T07:51:39;17.00;99.90
23544;DHT22;11950;51.230;4.012;2022-10-22T07:54:05;17.00;99.90
23544;DHT22;11950;51.230;4.012;2022-10-22T07:56:31;16.90;99.90
23544;DHT22;11950;51.230;4.012;2022-10-22T07:58:57;17.00;99.90
23544;DHT22;11950;51.230;4.012;2022-10-22T08:01:23;17.00;99.90
23544;DHT22;11950;51.230;4.012;2022-10-22T08:03:50;17.00;99.90
23544;DHT22;11950;51.230;4.012;2022-10-22T08:06:16;17.10;99.90
23544;DHT22;11950;51.230;4.012;2022-10-22T08:08:43;17.10;99.90
23544;DHT22;11950;51.230;4.012;2022-10-22T08:11:10;17.20;99.90
23544;DHT22;11950;51.230;4.012;2022-10-22T08:13:37;17.20;99.90
23544;DHT22;11950;51.230;4.012;2022-10-22T08:16:03;17.20;99.90
23544;DHT22;11950;51.230;4.012;2022-10-22T08:18:29;17.30;99.90
23544;DHT22;11950;51.230;4.012;2022-10-22T08:20:56;17.40;99.90
23544;DHT22;11950;51.230;4.012;2022-10-22T08:23:23;17.40;99.90
23544;DHT22;11950;51.230;4.012;2022-10-22T08:25:49;17.40;99.90
23544;DHT22;11950;51.230;4.012;2022-10-22T08:28:15;17.50;99.90
23544;DHT22;11950;51.230;4.012;2022-10-22T08:30:41;17.40;99.90
23544;DHT22;11950;51.230;4.012;2022-10-22T08:33:09;17.50;99.90
23544;DHT22;11950;51.230;4.012;2022-10-22T08:35:36;17.50;99.90
23544;DHT22;11950;51.230;4.012;2022-10-22T08:38:02;17.50;99.90
23544;DHT22;11950;51.230;4.012;2022-10-22T08:40:35;17.60;99.90
23544;DHT22;11950;51.230;4.012;2022-10-22T08:46:02;17.60;99.90
23544;DHT22;11950;51.230;4.012;2022-10-22T08:51:04;17.80;99.90
23544;DHT22;11950;51.230;4.012;2022-10-22T08:56:28;17.80;99.90
23544;DHT22;11950;51.230;4.012;2022-10-22T08:59:00;17.90;99.90
23544;DHT22;11950;51.230;4.012;2022-10-22T09:01:32;17.90;99.90
23544;DHT22;11950;51.230;4.012;2022-10-22T09:06:32;18.00;99.90
23544;DHT22;11950;51.230;4.012;2022-10-22T09:09:00;18.00;99.90
23544;DHT22;11950;51.230;4.012;2022-10-22T09:11:32;18.10;99.90
23544;DHT22;11950;51.230;4.012;2022-10-22T09:14:00;18.10;99.90
23544;DHT22;11950;51.230;4.012;2022-10-22T09:22:00;19.20;99.90
23544;DHT22;11950;51.230;4.012;2022-10-22T09:24:38;18.10;99.90
23544;DHT22;11950;51.230;4.012;2022-10-22T09:27:15;18.20;99.90
23544;DHT22;11950;51.230;4.012;2022-10-22T09:29:43;18.20;99.90
23544;DHT22;11950;51.230;4.012;2022-10-22T09:32:10;18.30;99.90
23544;DHT22;11950;51.230;4.012;2022-10-22T09:34:36;18.30;99.90
23544;DHT22;11950;51.230;4.012;2022-10-22T09:37:06;18.30;99.90
23544;DHT22;11950;51.230;4.012;2022-10-22T09:39:42;18.40;99.90
23544;DHT22;11950;51.230;4.012;2022-10-22T09:42:16;18.40;99.90
23544;DHT22;11950;51.230;4.012;2022-10-22T09:44:53;18.50;99.90
23544;DHT22;11950;51.230;4.012;2022-10-22T09:47:40;18.60;99.90
23544;DHT22;11950;51.230;4.012;2022-10-22T09:50:26;18.60;99.90
23544;DHT22;11950;51.230;4.012;2022-10-22T09:53:11;18.60;99.90
23544;DHT22;11950;51.230;4.012;2022-10-22T09:55:39;18.60;99.90
23544;DHT22;11950;51.230;4.012;2022-10-22T09:58:11;18.60;99.90
23544;DHT22;11950;51.230;4.012;2022-10-22T10:00:40;18.70;99.90
23544;DHT22;11950;51.230;4.012;2022-10-22T10:03:19;18.70;99.90
23544;DHT22;11950;51.230;4.012;2022-10-22T10:05:48;18.80;99.90
23544;DHT22;11950;51.230;4.012;2022-10-22T10:08:16;18.80;99.90
23544;DHT22;11950;51.230;4.012;2022-10-22T10:10:47;18.80;99.90
23544;DHT22;11950;51.230;4.012;2022-10-22T10:18:46;18.90;99.90
23544;DHT22;11950;51.230;4.012;2022-10-22T10:26:44;19.10;99.90
23544;DHT22;11950;51.230;4.012;2022-10-22T10:42:29;19.40;99.90
23544;DHT22;11950;51.230;4.012;2022-10-22T10:45:02;19.50;99.90
23544;DHT22;11950;51.230;4.012;2022-10-22T10:53:13;19.60;99.90
23544;DHT22;11950;51.230;4.012;2022-10-22T11:10:39;19.50;99.90
23544;DHT22;11950;51.230;4.012;2022-10-22T11:15:52;19.50;99.90
23544;DHT22;11950;51.230;4.012;2022-10-22T11:18:31;19.50;99.90
23544;DHT22;11950;51.230;4.012;2022-10-22T11:21:05;19.50;99.90
23544;DHT22;11950;51.230;4.012;2022-10-22T11:23:45;19.50;99.90
23544;DHT22;11950;51.230;4.012;2022-10-22T11:26:35;19.60;99.90
23544;DHT22;11950;51.230;4.012;2022-10-22T11:29:04;19.70;99.90
23544;DHT22;11950;51.230;4.012;2022-10-22T11:31:32;19.70;99.90
23544;DHT22;11950;51.230;4.012;2022-10-22T11:36:55;19.70;99.90
23544;DHT22;11950;51.230;4.012;2022-10-22T11:42:08;19.70;99.90
23544;DHT22;11950;51.230;4.012;2022-10-22T11:44:56;19.60;99.90
23544;DHT22;11950;51.230;4.012;2022-10-22T11:47:26;19.60;99.90
23544;DHT22;11950;51.230;4.012;2022-10-22T11:55:01;19.60;99.90
23544;DHT22;11950;51.230;4.012;2022-10-22T11:57:36;19.60;99.90
23544;DHT22;11950;51.230;4.012;2022-10-22T12:01:27;19.60;99.90
23544;DHT22;11950;51.230;4.012;2022-10-22T12:11:22;19.80;99.90
23544;DHT22;11950;51.230;4.012;2022-10-22T12:16:38;19.90;99.90
23544;DHT22;11950;51.230;4.012;2022-10-22T12:21:42;20.10;99.90
23544;DHT22;11950;51.230;4.012;2022-10-22T12:24:13;20.00;99.90
23544;DHT22;11950;51.230;4.012;2022-10-22T12:26:41;20.00;99.90
23544;DHT22;11950;51.230;4.012;2022-10-22T12:29:12;20.00;99.90
23544;DHT22;11950;51.230;4.012;2022-10-22T12:31:40;20.00;99.90
23544;DHT22;11950;51.230;4.012;2022-10-22T12:34:06;20.00;99.90
23544;DHT22;11950;51.230;4.012;2022-10-22T12:36:34;20.00;99.90
23544;DHT22;11950;51.230;4.012;2022-10-22T12:39:12;20.00;99.90
23544;DHT22;11950;51.230;4.012;2022-10-22T12:41:39;20.00;99.90
23544;DHT22;11950;51.230;4.012;2022-10-22T12:44:06;20.00;99.90
23544;DHT22;11950;51.230;4.012;2022-10-22T12:46:33;19.90;99.90
23544;DHT22;11950;51.230;4.012;2022-10-22T12:49:03;19.90;99.90
23544;DHT22;11950;51.230;4.012;2022-10-22T12:51:31;19.90;99.90
23544;DHT22;11950;51.230;4.012;2022-10-22T12:54:24;19.90;99.90
23544;DHT22;11950;51.230;4.012;2022-10-22T12:56:48;19.90;99.90
23544;DHT22;11950;51.230;4.012;2022-10-22T12:59:21;19.80;99.90
23544;DHT22;11950;51.230;4.012;2022-10-22T13:01:50;20.00;99.90
23544;DHT22;11950;51.230;4.012;2022-10-22T13:04:33;19.90;99.90
23544;DHT22;11950;51.230;4.012;2022-10-22T13:07:16;19.90;99.90
23544;DHT22;11950;51.230;4.012;2022-10-22T13:12:34;19.90;99.90
23544;DHT22;11950;51.230;4.012;2022-10-22T13:15:27;19.80;99.90
23544;DHT22;11950;51.230;4.012;2022-10-22T13:18:19;19.80;99.90
23544;DHT22;11950;51.230;4.012;2022-10-22T13:21:04;19.80;99.90
23544;DHT22;11950;51.230;4.012;2022-10-22T13:23:32;19.80;99.90
23544;DHT22;11950;51.230;4.012;2022-10-22T13:26:13;19.90;99.90
23544;DHT22;11950;51.230;4.012;2022-10-22T13:28:41;19.90;99.90
23544;DHT22;11950;51.230;4.012;2022-10-22T13:31:23;19.90;99.90
23544;DHT22;11950;51.230;4.012;2022-10-22T13:33:56;19.90;99.90
23544;DHT22;11950;51.230;4.012;2022-10-22T13:36:24;19.90;99.90
23544;DHT22;11950;51.230;4.012;2022-10-22T13:38:50;20.00;99.90
23544;DHT22;11950;51.230;4.012;2022-10-22T13:43:49;20.00;99.90
23544;DHT22;11950;51.230;4.012;2022-10-22T13:46:16;20.10;99.90
23544;DHT22;11950;51.230;4.012;2022-10-22T13:48:44;19.90;99.90
23544;DHT22;11950;51.230;4.012;2022-10-22T13:51:20;20.00;99.90
23544;DHT22;11950;51.230;4.012;2022-10-22T13:53:48;19.90;99.90
23544;DHT22;11950;51.230;4.012;2022-10-22T13:56:17;19.90;99.90
23544;DHT22;11950;51.230;4.012;2022-10-22T13:58:46;19.90;99.90
23544;DHT22;11950;51.230;4.012;2022-10-22T14:01:24;19.90;99.90
23544;DHT22;11950;51.230;4.012;2022-10-22T14:03:56;19.90;99.90
23544;DHT22;11950;51.230;4.012;2022-10-22T14:06:24;19.90;99.90
23544;DHT22;11950;51.230;4.012;2022-10-22T14:08:56;19.80;99.90
23544;DHT22;11950;51.230;4.012;2022-10-22T14:11:24;19.80;99.90
23544;DHT22;11950;51.230;4.012;2022-10-22T14:13:53;19.80;99.90
23544;DHT22;11950;51.230;4.012;2022-10-22T14:16:22;19.70;99.90
23544;DHT22;11950;51.230;4.012;2022-10-22T14:18:49;19.90;99.90
23544;DHT22;11950;51.230;4.012;2022-10-22T14:21:17;19.80;99.90
23544;DHT22;11950;51.230;4.012;2022-10-22T14:23:46;19.70;99.90
23544;DHT22;11950;51.230;4.012;2022-10-22T14:26:27;19.50;99.90
23544;DHT22;11950;51.230;4.012;2022-10-22T14:28:55;19.70;99.90
23544;DHT22;11950;51.230;4.012;2022-10-22T14:31:21;19.70;99.90
23544;DHT22;11950;51.230;4.012;2022-10-22T14:33:48;19.60;99.90
23544;DHT22;11950;51.230;4.012;2022-10-22T14:36:16;19.60;99.90
23544;DHT22;11950;51.230;4.012;2022-10-22T14:38:45;19.60;99.90
23544;DHT22;11950;51.230;4.012;2022-10-22T14:41:23;19.40;99.90
23544;DHT22;11950;51.230;4.012;2022-10-22T14:43:50;19.50;99.90
23544;DHT22;11950;51.230;4.012;2022-10-22T14:46:18;19.50;99.90
23544;DHT22;11950;51.230;4.012;2022-10-22T14:48:44;19.40;99.90
23544;DHT22;11950;51.230;4.012;2022-10-22T14:51:20;19.50;99.90
23544;DHT22;11950;51.230;4.012;2022-10-22T14:53:48;19.50;99.90
23544;DHT22;11950;51.230;4.012;2022-10-22T14:56:16;19.40;99.90
23544;DHT22;11950;51.230;4.012;2022-10-22T14:58:43;19.50;99.90
23544;DHT22;11950;51.230;4.012;2022-10-22T15:01:10;19.60;99.90
23544;DHT22;11950;51.230;4.012;2022-10-22T15:03:36;19.40;99.90
23544;DHT22;11950;51.230;4.012;2022-10-22T15:06:03;19.30;99.90
23544;DHT22;11950;51.230;4.012;2022-10-22T15:08:30;19.40;99.90
23544;DHT22;11950;51.230;4.012;2022-10-22T15:11:01;19.40;99.90
23544;DHT22;11950;51.230;4.012;2022-10-22T15:13:28;19.40;99.90
23544;DHT22;11950;51.230;4.012;2022-10-22T15:15:56;19.40;99.90
23544;DHT22;11950;51.230;4.012;2022-10-22T15:18:22;19.40;99.90
23544;DHT22;11950;51.230;4.012;2022-10-22T15:21:00;19.30;99.90
23544;DHT22;11950;51.230;4.012;2022-10-22T15:23:27;19.30;99.90
23544;DHT22;11950;51.230;4.012;2022-10-22T15:25:54;19.20;99.90
23544;DHT22;11950;51.230;4.012;2022-10-22T15:28:20;19.20;99.90
23544;DHT22;11950;51.230;4.012;2022-10-22T15:30:58;19.10;99.90
23544;DHT22;11950;51.230;4.012;2022-10-22T15:33:26;19.10;99.90
23544;DHT22;11950;51.230;4.012;2022-10-22T15:35:53;18.90;99.90
23544;DHT22;11950;51.230;4.012;2022-10-22T15:38:20;18.90;99.90
23544;DHT22;11950;51.230;4.012;2022-10-22T15:40:47;19.10;99.90
23544;DHT22;11950;51.230;4.012;2022-10-22T15:43:13;18.40;99.90
23544;DHT22;11950;51.230;4.012;2022-10-22T15:45:39;19.00;99.90
23544;DHT22;11950;51.230;4.012;2022-10-22T15:48:05;18.80;99.90
23544;DHT22;11950;51.230;4.012;2022-10-22T15:50:36;18.90;99.90
23544;DHT22;11950;51.230;4.012;2022-10-22T15:53:03;18.80;99.90
23544;DHT22;11950;51.230;4.012;2022-10-22T15:55:29;18.70;99.90
23544;DHT22;11950;51.230;4.012;2022-10-22T15:57:56;18.70;99.90
23544;DHT22;11950;51.230;4.012;2022-10-22T16:00:22;18.60;99.90
23544;DHT22;11950;51.230;4.012;2022-10-22T16:02:49;18.60;99.90
23544;DHT22;11950;51.230;4.012;2022-10-22T16:05:16;18.50;99.90
23544;DHT22;11950;51.230;4.012;2022-10-22T16:07:42;18.50;99.90
23544;DHT22;11950;51.230;4.012;2022-10-22T16:10:08;18.40;99.90
23544;DHT22;11950;51.230;4.012;2022-10-22T16:12:37;18.40;99.90
23544;DHT22;11950;51.230;4.012;2022-10-22T16:15:06;18.40;99.90
23544;DHT22;11950;51.230;4.012;2022-10-22T16:17:33;18.30;99.90
23544;DHT22;11950;51.230;4.012;2022-10-22T16:19:59;18.30;99.90
23544;DHT22;11950;51.230;4.012;2022-10-22T16:22:25;18.20;99.90
23544;DHT22;11950;51.230;4.012;2022-10-22T16:24:51;18.10;99.90
23544;DHT22;11950;51.230;4.012;2022-10-22T16:27:17;18.10;99.90
23544;DHT22;11950;51.230;4.012;2022-10-22T16:29:43;18.00;99.90
23544;DHT22;11950;51.230;4.012;2022-10-22T16:32:10;18.00;99.90
23544;DHT22;11950;51.230;4.012;2022-10-22T16:34:38;17.90;99.90
23544;DHT22;11950;51.230;4.012;2022-10-22T16:37:04;17.90;99.90
23544;DHT22;11950;51.230;4.012;2022-10-22T16:39:34;17.80;99.90
23544;DHT22;11950;51.230;4.012;2022-10-22T16:42:01;17.80;99.90
23544;DHT22;11950;51.230;4.012;2022-10-22T16:44:28;17.70;99.90
23544;DHT22;11950;51.230;4.012;2022-10-22T16:46:54;17.70;99.90
23544;DHT22;11950;51.230;4.012;2022-10-22T16:49:20;17.60;99.90
23544;DHT22;11950;51.230;4.012;2022-10-22T16:51:46;17.50;99.90
23544;DHT22;11950;51.230;4.012;2022-10-22T16:54:13;17.50;99.90
23544;DHT22;11950;51.230;4.012;2022-10-22T16:56:40;17.40;99.90
23544;DHT22;11950;51.230;4.012;2022-10-22T16:59:06;17.30;99.90
23544;DHT22;11950;51.230;4.012;2022-10-22T17:01:33;17.30;99.90
23544;DHT22;11950;51.230;4.012;2022-10-22T17:03:59;17.20;99.90
23544;DHT22;11950;51.230;4.012;2022-10-22T17:06:26;17.00;99.90
23544;DHT22;11950;51.230;4.012;2022-10-22T17:08:52;17.00;99.90
23544;DHT22;11950;51.230;4.012;2022-10-22T17:11:21;16.90;99.90
23544;DHT22;11950;51.230;4.012;2022-10-22T17:13:49;16.90;99.90
23544;DHT22;11950;51.230;4.012;2022-10-22T17:16:20;16.90;99.90
23544;DHT22;11950;51.230;4.012;2022-10-22T17:18:47;16.90;99.90
23544;DHT22;11950;51.230;4.012;2022-10-22T17:21:14;16.80;99.90
23544;DHT22;11950;51.230;4.012;2022-10-22T17:23:41;16.70;99.90
23544;DHT22;11950;51.230;4.012;2022-10-22T17:26:13;16.50;99.90
23544;DHT22;11950;51.230;4.012;2022-10-22T17:28:40;16.70;99.90
23544;DHT22;11950;51.230;4.012;2022-10-22T17:31:22;16.60;99.90
23544;DHT22;11950;51.230;4.012;2022-10-22T17:33:51;16.70;99.90
23544;DHT22;11950;51.230;4.012;2022-10-22T17:36:18;16.40;99.90
23544;DHT22;11950;51.230;4.012;2022-10-22T17:38:48;16.50;99.90
23544;DHT22;11950;51.230;4.012;2022-10-22T17:41:25;16.20;99.90
23544;DHT22;11950;51.230;4.012;2022-10-22T17:43:51;16.40;99.90